sensor_id;sensor_type;location;lat;lon;timestamp;temperature;humidity
26821;DHT22;37186;51.394;5.454;2024-01-25T00:02:26;11.30;81.60
26821;DHT22;37186;51.394;5.454;2024-01-25T00:05:26;11.30;81.60
26821;DHT22;37186;51.394;5.454;2024-01-25T00:08:27;11.20;81.60
26821;DHT22;37186;51.394;5.454;2024-01-25T00:11:27;11.20;81.60
26821;DHT22;37186;51.394;5.454;2024-01-25T00:14:31;11.20;81.60
26821;DHT22;37186;51.394;5.454;2024-01-25T00:17:32;11.20;81.50
26821;DHT22;37186;51.394;5.454;2024-01-25T00:20:32;11.20;81.50
26821;DHT22;37186;51.394;5.454;2024-01-25T00:23:33;11.20;81.60
26821;DHT22;37186;51.394;5.454;2024-01-25T00:26:33;11.20;81.70
26821;DHT22;37186;51.394;5.454;2024-01-25T00:29:34;11.20;81.60
26821;DHT22;37186;51.394;5.454;2024-01-25T00:32:35;11.20;81.70
26821;DHT22;37186;51.394;5.454;2024-01-25T00:35:36;11.20;81.60
26821;DHT22;37186;51.394;5.454;2024-01-25T00:38:36;11.10;81.60
26821;DHT22;37186;51.394;5.454;2024-01-25T00:41:38;11.10;81.60
26821;DHT22;37186;51.394;5.454;2024-01-25T00:44:39;11.10;81.60
26821;DHT22;37186;51.394;5.454;2024-01-25T00:47:40;11.10;81.60
26821;DHT22;37186;51.394;5.454;2024-01-25T00:50:40;11.10;81.70
26821;DHT22;37186;51.394;5.454;2024-01-25T00:53:41;11.00;81.50
26821;DHT22;37186;51.394;5.454;2024-01-25T00:56:42;11.00;81.60
26821;DHT22;37186;51.394;5.454;2024-01-25T00:59:43;11.00;81.50
26821;DHT22;37186;51.394;5.454;2024-01-25T01:02:44;11.00;81.60
26821;DHT22;37186;51.394;5.454;2024-01-25T01:05:45;10.90;81.50
26821;DHT22;37186;51.394;5.454;2024-01-25T01:08:46;10.90;81.50
26821;DHT22;37186;51.394;5.454;2024-01-25T01:11:47;10.90;81.60
26821;DHT22;37186;51.394;5.454;2024-01-25T01:14:48;10.90;81.50
26821;DHT22;37186;51.394;5.454;2024-01-25T01:17:48;10.90;81.60
26821;DHT22;37186;51.394;5.454;2024-01-25T01:20:49;10.90;81.60
26821;DHT22;37186;51.394;5.454;2024-01-25T01:23:49;10.80;81.40
26821;DHT22;37186;51.394;5.454;2024-01-25T01:26:50;10.80;81.50
26821;DHT22;37186;51.394;5.454;2024-01-25T01:29:54;10.80;81.60
26821;DHT22;37186;51.394;5.454;2024-01-25T01:32:54;10.80;81.50
26821;DHT22;37186;51.394;5.454;2024-01-25T01:35:55;10.70;81.70
26821;DHT22;37186;51.394;5.454;2024-01-25T01:38:55;10.70;81.60
26821;DHT22;37186;51.394;5.454;2024-01-25T01:41:56;10.70;81.60
26821;DHT22;37186;51.394;5.454;2024-01-25T01:44:56;10.70;81.60
26821;DHT22;37186;51.394;5.454;2024-01-25T01:47:57;10.60;81.60
26821;DHT22;37186;51.394;5.454;2024-01-25T01:50:58;10.60;81.60
26821;DHT22;37186;51.394;5.454;2024-01-25T01:54:00;10.60;81.60
26821;DHT22;37186;51.394;5.454;2024-01-25T01:57:01;10.60;81.60
26821;DHT22;37186;51.394;5.454;2024-01-25T02:00:03;10.60;81.80
26821;DHT22;37186;51.394;5.454;2024-01-25T02:03:06;10.50;81.70
26821;DHT22;37186;51.394;5.454;2024-01-25T02:06:07;10.50;81.60
26821;DHT22;37186;51.394;5.454;2024-01-25T02:09:07;10.50;81.60
26821;DHT22;37186;51.394;5.454;2024-01-25T02:12:08;10.40;81.70
26821;DHT22;37186;51.394;5.454;2024-01-25T02:15:09;10.40;81.70
26821;DHT22;37186;51.394;5.454;2024-01-25T02:18:10;10.40;81.60
26821;DHT22;37186;51.394;5.454;2024-01-25T02:21:13;10.40;81.70
26821;DHT22;37186;51.394;5.454;2024-01-25T02:24:14;10.40;81.60
26821;DHT22;37186;51.394;5.454;2024-01-25T02:27:14;10.40;81.70
26821;DHT22;37186;51.394;5.454;2024-01-25T02:30:15;10.40;81.70
26821;DHT22;37186;51.394;5.454;2024-01-25T02:33:15;10.40;82.60
26821;DHT22;37186;51.394;5.454;2024-01-25T02:36:16;10.30;81.70
26821;DHT22;37186;51.394;5.454;2024-01-25T02:39:17;10.30;81.70
26821;DHT22;37186;51.394;5.454;2024-01-25T02:42:17;10.30;81.70
26821;DHT22;37186;51.394;5.454;2024-01-25T02:45:18;10.30;81.50
26821;DHT22;37186;51.394;5.454;2024-01-25T02:48:18;10.20;81.70
26821;DHT22;37186;51.394;5.454;2024-01-25T02:51:19;10.20;81.70
26821;DHT22;37186;51.394;5.454;2024-01-25T02:54:19;10.20;81.70
26821;DHT22;37186;51.394;5.454;2024-01-25T02:57:20;10.20;81.60
26821;DHT22;37186;51.394;5.454;2024-01-25T03:00:21;10.20;81.70
26821;DHT22;37186;51.394;5.454;2024-01-25T03:03:21;10.10;81.60
26821;DHT22;37186;51.394;5.454;2024-01-25T03:06:23;10.10;81.40
26821;DHT22;37186;51.394;5.454;2024-01-25T03:09:24;10.10;81.60
26821;DHT22;37186;51.394;5.454;2024-01-25T03:12:25;10.10;81.50
26821;DHT22;37186;51.394;5.454;2024-01-25T03:15:25;10.00;81.70
26821;DHT22;37186;51.394;5.454;2024-01-25T03:18:26;10.00;81.60
26821;DHT22;37186;51.394;5.454;2024-01-25T03:21:26;10.00;81.60
26821;DHT22;37186;51.394;5.454;2024-01-25T03:24:27;9.90;81.60
26821;DHT22;37186;51.394;5.454;2024-01-25T03:27:27;9.90;81.70
26821;DHT22;37186;51.394;5.454;2024-01-25T03:30:28;9.90;81.70
26821;DHT22;37186;51.394;5.454;2024-01-25T03:33:28;9.90;81.70
26821;DHT22;37186;51.394;5.454;2024-01-25T03:36:29;9.80;81.60
26821;DHT22;37186;51.394;5.454;2024-01-25T03:39:29;9.80;81.60
26821;DHT22;37186;51.394;5.454;2024-01-25T03:42:30;9.80;81.40
26821;DHT22;37186;51.394;5.454;2024-01-25T03:45:31;9.70;81.50
26821;DHT22;37186;51.394;5.454;2024-01-25T03:48:32;9.70;81.60
26821;DHT22;37186;51.394;5.454;2024-01-25T03:51:33;9.70;81.50
26821;DHT22;37186;51.394;5.454;2024-01-25T03:54:34;9.70;81.50
26821;DHT22;37186;51.394;5.454;2024-01-25T03:57:34;9.60;81.50
26821;DHT22;37186;51.394;5.454;2024-01-25T04:00:36;9.60;81.50
26821;DHT22;37186;51.394;5.454;2024-01-25T04:03:37;9.60;81.80
26821;DHT22;37186;51.394;5.454;2024-01-25T04:06:41;9.50;81.70
26821;DHT22;37186;51.394;5.454;2024-01-25T04:09:46;9.50;81.50
26821;DHT22;37186;51.394;5.454;2024-01-25T04:12:46;9.40;81.50
26821;DHT22;37186;51.394;5.454;2024-01-25T04:15:47;9.40;81.50
26821;DHT22;37186;51.394;5.454;2024-01-25T04:18:47;9.40;82.40
26821;DHT22;37186;51.394;5.454;2024-01-25T04:21:48;9.40;81.50
26821;DHT22;37186;51.394;5.454;2024-01-25T04:24:48;9.30;81.50
26821;DHT22;37186;51.394;5.454;2024-01-25T04:27:49;9.30;81.60
26821;DHT22;37186;51.394;5.454;2024-01-25T04:30:50;9.30;81.60
26821;DHT22;37186;51.394;5.454;2024-01-25T04:33:52;9.20;81.60
26821;DHT22;37186;51.394;5.454;2024-01-25T04:36:52;9.20;81.60
26821;DHT22;37186;51.394;5.454;2024-01-25T04:39:53;9.10;81.50
26821;DHT22;37186;51.394;5.454;2024-01-25T04:42:53;9.10;81.50
26821;DHT22;37186;51.394;5.454;2024-01-25T04:45:54;9.10;81.60
26821;DHT22;37186;51.394;5.454;2024-01-25T04:48:54;9.10;81.60
26821;DHT22;37186;51.394;5.454;2024-01-25T04:51:55;9.00;81.50
26821;DHT22;37186;51.394;5.454;2024-01-25T04:54:55;9.00;81.50
26821;DHT22;37186;51.394;5.454;2024-01-25T04:57:56;8.90;81.50
26821;DHT22;37186;51.394;5.454;2024-01-25T05:00:56;8.90;81.60
26821;DHT22;37186;51.394;5.454;2024-01-25T05:03:57;8.90;81.50
26821;DHT22;37186;51.394;5.454;2024-01-25T05:06:57;8.80;81.50
26821;DHT22;37186;51.394;5.454;2024-01-25T05:09:58;8.80;81.50
26821;DHT22;37186;51.394;5.454;2024-01-25T05:12:58;8.70;81.50
26821;DHT22;37186;51.394;5.454;2024-01-25T05:15:59;8.70;81.50
26821;DHT22;37186;51.394;5.454;2024-01-25T05:18:59;8.70;81.50
26821;DHT22;37186;51.394;5.454;2024-01-25T05:22:00;8.70;81.50
26821;DHT22;37186;51.394;5.454;2024-01-25T05:25:01;8.60;81.50
26821;DHT22;37186;51.394;5.454;2024-01-25T05:28:02;8.60;81.50
26821;DHT22;37186;51.394;5.454;2024-01-25T05:31:03;8.60;81.50
26821;DHT22;37186;51.394;5.454;2024-01-25T05:34:04;8.50;81.40
26821;DHT22;37186;51.394;5.454;2024-01-25T05:37:05;8.50;81.50
26821;DHT22;37186;51.394;5.454;2024-01-25T05:40:06;8.50;81.50
26821;DHT22;37186;51.394;5.454;2024-01-25T05:43:06;8.40;81.20
26821;DHT22;37186;51.394;5.454;2024-01-25T05:46:07;8.40;81.40
26821;DHT22;37186;51.394;5.454;2024-01-25T05:49:10;8.40;81.40
26821;DHT22;37186;51.394;5.454;2024-01-25T05:52:10;8.30;81.50
26821;DHT22;37186;51.394;5.454;2024-01-25T05:55:11;8.30;81.40
26821;DHT22;37186;51.394;5.454;2024-01-25T05:58:14;8.30;82.20
26821;DHT22;37186;51.394;5.454;2024-01-25T06:01:14;8.20;81.30
26821;DHT22;37186;51.394;5.454;2024-01-25T06:04:15;8.20;81.40
26821;DHT22;37186;51.394;5.454;2024-01-25T06:07:15;8.20;81.40
26821;DHT22;37186;51.394;5.454;2024-01-25T06:10:16;8.20;81.50
26821;DHT22;37186;51.394;5.454;2024-01-25T06:13:16;8.10;81.40
26821;DHT22;37186;51.394;5.454;2024-01-25T06:16:17;8.10;81.40
26821;DHT22;37186;51.394;5.454;2024-01-25T06:19:18;8.10;81.60
26821;DHT22;37186;51.394;5.454;2024-01-25T06:22:18;8.10;81.50
26821;DHT22;37186;51.394;5.454;2024-01-25T06:25:19;8.00;81.50
26821;DHT22;37186;51.394;5.454;2024-01-25T06:28:19;8.00;81.50
26821;DHT22;37186;51.394;5.454;2024-01-25T06:31:20;8.00;81.60
26821;DHT22;37186;51.394;5.454;2024-01-25T06:34:20;8.00;81.50
26821;DHT22;37186;51.394;5.454;2024-01-25T06:37:21;7.90;81.50
26821;DHT22;37186;51.394;5.454;2024-01-25T06:40:22;7.90;81.50
26821;DHT22;37186;51.394;5.454;2024-01-25T06:43:22;7.90;81.40
26821;DHT22;37186;51.394;5.454;2024-01-25T06:46:23;7.90;81.40
26821;DHT22;37186;51.394;5.454;2024-01-25T06:49:23;7.90;81.40
26821;DHT22;37186;51.394;5.454;2024-01-25T06:52:24;7.80;81.40
26821;DHT22;37186;51.394;5.454;2024-01-25T06:55:24;7.80;81.50
26821;DHT22;37186;51.394;5.454;2024-01-25T06:58:25;7.80;81.50
26821;DHT22;37186;51.394;5.454;2024-01-25T07:01:26;7.80;81.40
26821;DHT22;37186;51.394;5.454;2024-01-25T07:04:28;7.70;81.30
26821;DHT22;37186;51.394;5.454;2024-01-25T07:07:29;7.70;81.50
26821;DHT22;37186;51.394;5.454;2024-01-25T07:10:29;7.70;81.50
26821;DHT22;37186;51.394;5.454;2024-01-25T07:13:30;7.70;81.30
26821;DHT22;37186;51.394;5.454;2024-01-25T07:16:30;7.70;81.30
26821;DHT22;37186;51.394;5.454;2024-01-25T07:19:31;7.60;81.30
26821;DHT22;37186;51.394;5.454;2024-01-25T07:22:31;7.60;81.30
26821;DHT22;37186;51.394;5.454;2024-01-25T07:25:32;7.50;81.30
26821;DHT22;37186;51.394;5.454;2024-01-25T07:28:32;7.50;81.30
26821;DHT22;37186;51.394;5.454;2024-01-25T07:31:33;7.50;81.30
26821;DHT22;37186;51.394;5.454;2024-01-25T07:34:34;7.50;81.30
26821;DHT22;37186;51.394;5.454;2024-01-25T07:37:34;7.50;81.30
26821;DHT22;37186;51.394;5.454;2024-01-25T07:40:35;7.50;81.40
26821;DHT22;37186;51.394;5.454;2024-01-25T07:43:35;7.50;81.40
26821;DHT22;37186;51.394;5.454;2024-01-25T07:46:36;7.50;81.30
26821;DHT22;37186;51.394;5.454;2024-01-25T07:49:36;7.40;81.30
26821;DHT22;37186;51.394;5.454;2024-01-25T07:52:37;7.40;81.30
26821;DHT22;37186;51.394;5.454;2024-01-25T07:55:37;7.40;81.50
26821;DHT22;37186;51.394;5.454;2024-01-25T07:58:38;7.40;81.40
26821;DHT22;37186;51.394;5.454;2024-01-25T08:01:39;7.40;81.50
26821;DHT22;37186;51.394;5.454;2024-01-25T08:04:40;7.40;81.40
26821;DHT22;37186;51.394;5.454;2024-01-25T08:07:40;7.40;81.50
26821;DHT22;37186;51.394;5.454;2024-01-25T08:10:41;7.40;81.70
26821;DHT22;37186;51.394;5.454;2024-01-25T08:13:45;7.40;81.50
26821;DHT22;37186;51.394;5.454;2024-01-25T08:16:45;7.40;81.50
26821;DHT22;37186;51.394;5.454;2024-01-25T08:19:46;7.40;81.40
26821;DHT22;37186;51.394;5.454;2024-01-25T08:22:47;7.50;81.50
26821;DHT22;37186;51.394;5.454;2024-01-25T08:25:47;7.50;81.70
26821;DHT22;37186;51.394;5.454;2024-01-25T08:28:48;7.50;81.60
26821;DHT22;37186;51.394;5.454;2024-01-25T08:31:49;7.50;81.70
26821;DHT22;37186;51.394;5.454;2024-01-25T08:34:49;7.50;81.60
26821;DHT22;37186;51.394;5.454;2024-01-25T08:37:50;7.60;81.80
26821;DHT22;37186;51.394;5.454;2024-01-25T08:40:51;7.60;81.70
26821;DHT22;37186;51.394;5.454;2024-01-25T08:43:51;7.60;81.90
26821;DHT22;37186;51.394;5.454;2024-01-25T08:46:52;7.70;82.20
26821;DHT22;37186;51.394;5.454;2024-01-25T08:49:52;7.70;82.50
26821;DHT22;37186;51.394;5.454;2024-01-25T08:52:53;7.80;82.00
26821;DHT22;37186;51.394;5.454;2024-01-25T08:55:54;7.80;82.20
26821;DHT22;37186;51.394;5.454;2024-01-25T08:58:55;7.80;82.10
26821;DHT22;37186;51.394;5.454;2024-01-25T09:01:55;7.90;82.20
26821;DHT22;37186;51.394;5.454;2024-01-25T09:04:56;7.90;82.20
26821;DHT22;37186;51.394;5.454;2024-01-25T09:07:56;8.00;82.30
26821;DHT22;37186;51.394;5.454;2024-01-25T09:10:57;8.00;82.40
26821;DHT22;37186;51.394;5.454;2024-01-25T09:14:00;8.00;82.30
26821;DHT22;37186;51.394;5.454;2024-01-25T09:17:01;8.10;82.30
26821;DHT22;37186;51.394;5.454;2024-01-25T09:20:02;8.10;82.70
26821;DHT22;37186;51.394;5.454;2024-01-25T09:23:03;8.20;82.40
26821;DHT22;37186;51.394;5.454;2024-01-25T09:26:04;8.20;82.40
26821;DHT22;37186;51.394;5.454;2024-01-25T09:29:05;8.20;82.40
26821;DHT22;37186;51.394;5.454;2024-01-25T09:32:08;8.30;82.40
26821;DHT22;37186;51.394;5.454;2024-01-25T09:35:09;8.30;82.50
26821;DHT22;37186;51.394;5.454;2024-01-25T09:38:10;8.30;82.60
26821;DHT22;37186;51.394;5.454;2024-01-25T09:41:10;8.40;82.80
26821;DHT22;37186;51.394;5.454;2024-01-25T09:44:11;8.40;82.70
26821;DHT22;37186;51.394;5.454;2024-01-25T09:47:12;8.40;82.80
26821;DHT22;37186;51.394;5.454;2024-01-25T09:50:14;8.50;82.70
26821;DHT22;37186;51.394;5.454;2024-01-25T09:53:21;8.50;82.70
26821;DHT22;37186;51.394;5.454;2024-01-25T09:56:22;8.60;82.90
26821;DHT22;37186;51.394;5.454;2024-01-25T09:59:23;8.60;82.80
26821;DHT22;37186;51.394;5.454;2024-01-25T10:02:24;8.60;82.80
26821;DHT22;37186;51.394;5.454;2024-01-25T10:05:24;8.60;82.80
26821;DHT22;37186;51.394;5.454;2024-01-25T10:08:25;8.70;83.00
26821;DHT22;37186;51.394;5.454;2024-01-25T10:11:25;8.70;83.00
26821;DHT22;37186;51.394;5.454;2024-01-25T10:14:28;8.80;83.00
26821;DHT22;37186;51.394;5.454;2024-01-25T10:17:29;8.80;83.10
26821;DHT22;37186;51.394;5.454;2024-01-25T10:20:31;8.90;83.10
26821;DHT22;37186;51.394;5.454;2024-01-25T10:23:31;8.90;83.10
26821;DHT22;37186;51.394;5.454;2024-01-25T10:26:34;8.90;83.00
26821;DHT22;37186;51.394;5.454;2024-01-25T10:29:35;9.00;83.20
26821;DHT22;37186;51.394;5.454;2024-01-25T10:32:35;9.00;83.60
26821;DHT22;37186;51.394;5.454;2024-01-25T10:35:37;9.00;83.30
26821;DHT22;37186;51.394;5.454;2024-01-25T10:38:38;9.00;83.10
26821;DHT22;37186;51.394;5.454;2024-01-25T10:41:39;9.10;83.20
26821;DHT22;37186;51.394;5.454;2024-01-25T10:44:41;9.10;83.20
26821;DHT22;37186;51.394;5.454;2024-01-25T10:47:42;9.10;83.30
26821;DHT22;37186;51.394;5.454;2024-01-25T10:50:45;9.20;83.40
26821;DHT22;37186;51.394;5.454;2024-01-25T10:53:47;9.20;83.20
26821;DHT22;37186;51.394;5.454;2024-01-25T10:56:48;9.30;83.30
26821;DHT22;37186;51.394;5.454;2024-01-25T10:59:49;9.30;83.40
26821;DHT22;37186;51.394;5.454;2024-01-25T11:02:50;9.40;84.10
26821;DHT22;37186;51.394;5.454;2024-01-25T11:05:52;9.40;83.40
26821;DHT22;37186;51.394;5.454;2024-01-25T11:09:04;9.40;83.40
26821;DHT22;37186;51.394;5.454;2024-01-25T11:12:12;9.50;83.40
26821;DHT22;37186;51.394;5.454;2024-01-25T11:15:21;9.50;83.40
26821;DHT22;37186;51.394;5.454;2024-01-25T11:18:25;9.60;83.40
26821;DHT22;37186;51.394;5.454;2024-01-25T11:21:39;9.60;83.40
26821;DHT22;37186;51.394;5.454;2024-01-25T11:24:40;9.60;83.40
26821;DHT22;37186;51.394;5.454;2024-01-25T11:27:40;9.60;83.50
26821;DHT22;37186;51.394;5.454;2024-01-25T11:30:41;9.70;83.70
26821;DHT22;37186;51.394;5.454;2024-01-25T11:33:42;9.70;83.50
26821;DHT22;37186;51.394;5.454;2024-01-25T11:36:43;9.70;83.40
26821;DHT22;37186;51.394;5.454;2024-01-25T11:39:44;9.80;83.60
26821;DHT22;37186;51.394;5.454;2024-01-25T11:42:48;9.80;83.50
26821;DHT22;37186;51.394;5.454;2024-01-25T11:45:48;9.80;83.50
26821;DHT22;37186;51.394;5.454;2024-01-25T11:48:49;9.80;83.70
26821;DHT22;37186;51.394;5.454;2024-01-25T11:51:49;9.90;83.60
26821;DHT22;37186;51.394;5.454;2024-01-25T11:54:50;9.90;83.60
26821;DHT22;37186;51.394;5.454;2024-01-25T11:57:51;9.90;83.60
26821;DHT22;37186;51.394;5.454;2024-01-25T12:00:52;9.90;83.60
26821;DHT22;37186;51.394;5.454;2024-01-25T12:03:53;10.00;83.90
26821;DHT22;37186;51.394;5.454;2024-01-25T12:06:54;10.00;83.80
26821;DHT22;37186;51.394;5.454;2024-01-25T12:10:04;10.00;83.70
26821;DHT22;37186;51.394;5.454;2024-01-25T12:13:09;10.10;84.50
26821;DHT22;37186;51.394;5.454;2024-01-25T12:16:11;10.10;83.60
26821;DHT22;37186;51.394;5.454;2024-01-25T12:19:11;10.10;83.80
26821;DHT22;37186;51.394;5.454;2024-01-25T12:22:12;10.10;83.80
26821;DHT22;37186;51.394;5.454;2024-01-25T12:25:19;10.20;83.80
26821;DHT22;37186;51.394;5.454;2024-01-25T12:28:20;10.20;84.40
26821;DHT22;37186;51.394;5.454;2024-01-25T12:31:20;10.20;83.90
26821;DHT22;37186;51.394;5.454;2024-01-25T12:34:24;10.20;83.80
26821;DHT22;37186;51.394;5.454;2024-01-25T12:37:24;10.30;83.80
26821;DHT22;37186;51.394;5.454;2024-01-25T12:40:25;10.30;83.80
26821;DHT22;37186;51.394;5.454;2024-01-25T12:43:25;10.30;84.00
26821;DHT22;37186;51.394;5.454;2024-01-25T12:46:26;10.30;83.90
26821;DHT22;37186;51.394;5.454;2024-01-25T12:49:27;10.40;83.90
26821;DHT22;37186;51.394;5.454;2024-01-25T12:52:29;10.40;83.80
26821;DHT22;37186;51.394;5.454;2024-01-25T12:55:30;10.40;83.80
26821;DHT22;37186;51.394;5.454;2024-01-25T12:58:31;10.40;83.70
26821;DHT22;37186;51.394;5.454;2024-01-25T13:01:31;10.40;83.70
26821;DHT22;37186;51.394;5.454;2024-01-25T13:04:32;10.50;83.80
26821;DHT22;37186;51.394;5.454;2024-01-25T13:07:32;10.50;83.80
26821;DHT22;37186;51.394;5.454;2024-01-25T13:10:33;10.50;83.80
26821;DHT22;37186;51.394;5.454;2024-01-25T13:13:33;10.50;83.80
26821;DHT22;37186;51.394;5.454;2024-01-25T13:16:34;10.50;83.90
26821;DHT22;37186;51.394;5.454;2024-01-25T13:19:35;10.50;84.00
26821;DHT22;37186;51.394;5.454;2024-01-25T13:22:35;10.50;83.80
26821;DHT22;37186;51.394;5.454;2024-01-25T13:25:36;10.50;83.80
26821;DHT22;37186;51.394;5.454;2024-01-25T13:28:36;10.50;83.70
26821;DHT22;37186;51.394;5.454;2024-01-25T13:31:37;10.50;83.70
26821;DHT22;37186;51.394;5.454;2024-01-25T13:34:37;10.50;83.80
26821;DHT22;37186;51.394;5.454;2024-01-25T13:37:38;10.50;83.70
26821;DHT22;37186;51.394;5.454;2024-01-25T13:40:39;10.50;83.80
26821;DHT22;37186;51.394;5.454;2024-01-25T13:43:39;10.50;83.80
26821;DHT22;37186;51.394;5.454;2024-01-25T13:46:40;10.50;83.70
26821;DHT22;37186;51.394;5.454;2024-01-25T13:49:41;10.50;83.70
26821;DHT22;37186;51.394;5.454;2024-01-25T13:52:41;10.60;83.80
26821;DHT22;37186;51.394;5.454;2024-01-25T13:55:42;10.60;83.80
26821;DHT22;37186;51.394;5.454;2024-01-25T13:58:42;10.60;83.80
26821;DHT22;37186;51.394;5.454;2024-01-25T14:01:43;10.60;83.80
26821;DHT22;37186;51.394;5.454;2024-01-25T14:04:43;10.60;83.70
26821;DHT22;37186;51.394;5.454;2024-01-25T14:07:44;10.60;83.80
26821;DHT22;37186;51.394;5.454;2024-01-25T14:10:44;10.60;83.80
26821;DHT22;37186;51.394;5.454;2024-01-25T14:13:45;10.60;83.80
26821;DHT22;37186;51.394;5.454;2024-01-25T14:16:45;10.60;83.80
26821;DHT22;37186;51.394;5.454;2024-01-25T14:19:46;10.60;83.80
26821;DHT22;37186;51.394;5.454;2024-01-25T14:22:46;10.60;83.80
26821;DHT22;37186;51.394;5.454;2024-01-25T14:25:47;10.60;83.80
26821;DHT22;37186;51.394;5.454;2024-01-25T14:28:47;10.60;83.80
26821;DHT22;37186;51.394;5.454;2024-01-25T14:31:48;10.70;83.80
26821;DHT22;37186;51.394;5.454;2024-01-25T14:34:48;10.70;83.80
26821;DHT22;37186;51.394;5.454;2024-01-25T14:37:49;10.70;83.80
26821;DHT22;37186;51.394;5.454;2024-01-25T14:40:49;10.70;83.80
26821;DHT22;37186;51.394;5.454;2024-01-25T14:43:50;10.70;83.80
26821;DHT22;37186;51.394;5.454;2024-01-25T14:46:50;10.70;83.80
26821;DHT22;37186;51.394;5.454;2024-01-25T14:49:51;10.70;83.80
26821;DHT22;37186;51.394;5.454;2024-01-25T14:52:52;10.70;83.90
26821;DHT22;37186;51.394;5.454;2024-01-25T14:55:52;10.70;83.80
26821;DHT22;37186;51.394;5.454;2024-01-25T14:58:53;10.70;83.80
26821;DHT22;37186;51.394;5.454;2024-01-25T15:01:54;10.70;83.80
26821;DHT22;37186;51.394;5.454;2024-01-25T15:04:54;10.70;83.90
26821;DHT22;37186;51.394;5.454;2024-01-25T15:07:55;10.70;84.70
26821;DHT22;37186;51.394;5.454;2024-01-25T15:10:56;10.70;83.90
26821;DHT22;37186;51.394;5.454;2024-01-25T15:13:57;10.70;83.80
26821;DHT22;37186;51.394;5.454;2024-01-25T15:16:58;10.70;83.80
26821;DHT22;37186;51.394;5.454;2024-01-25T15:19:58;10.70;83.80
26821;DHT22;37186;51.394;5.454;2024-01-25T15:22:59;10.70;83.90
26821;DHT22;37186;51.394;5.454;2024-01-25T15:26:03;10.70;84.00
26821;DHT22;37186;51.394;5.454;2024-01-25T15:29:04;10.80;84.00
26821;DHT22;37186;51.394;5.454;2024-01-25T15:32:06;10.80;84.00
26821;DHT22;37186;51.394;5.454;2024-01-25T15:35:06;10.80;83.90
26821;DHT22;37186;51.394;5.454;2024-01-25T15:38:07;10.80;83.90
26821;DHT22;37186;51.394;5.454;2024-01-25T15:41:09;10.80;84.00
26821;DHT22;37186;51.394;5.454;2024-01-25T15:44:13;10.80;84.00
26821;DHT22;37186;51.394;5.454;2024-01-25T15:47:13;10.80;83.90
26821;DHT22;37186;51.394;5.454;2024-01-25T15:50:14;10.80;84.00
26821;DHT22;37186;51.394;5.454;2024-01-25T15:53:14;10.80;84.00
26821;DHT22;37186;51.394;5.454;2024-01-25T15:56:15;10.80;84.00
26821;DHT22;37186;51.394;5.454;2024-01-25T15:59:16;10.80;84.00
26821;DHT22;37186;51.394;5.454;2024-01-25T16:02:17;10.80;84.00
26821;DHT22;37186;51.394;5.454;2024-01-25T16:05:18;10.80;84.00
26821;DHT22;37186;51.394;5.454;2024-01-25T16:08:18;10.80;84.10
26821;DHT22;37186;51.394;5.454;2024-01-25T16:11:19;10.80;84.10
26821;DHT22;37186;51.394;5.454;2024-01-25T16:14:19;10.80;84.00
26821;DHT22;37186;51.394;5.454;2024-01-25T16:17:20;10.80;84.00
26821;DHT22;37186;51.394;5.454;2024-01-25T16:20:20;10.90;84.20
26821;DHT22;37186;51.394;5.454;2024-01-25T16:23:21;10.90;84.20
26821;DHT22;37186;51.394;5.454;2024-01-25T16:26:22;10.80;84.00
26821;DHT22;37186;51.394;5.454;2024-01-25T16:29:23;10.80;84.10
26821;DHT22;37186;51.394;5.454;2024-01-25T16:32:23;10.90;84.20
26821;DHT22;37186;51.394;5.454;2024-01-25T16:35:24;10.90;84.20
26821;DHT22;37186;51.394;5.454;2024-01-25T16:38:24;10.80;84.10
26821;DHT22;37186;51.394;5.454;2024-01-25T16:41:28;10.90;84.30
26821;DHT22;37186;51.394;5.454;2024-01-25T16:44:28;10.90;84.20
26821;DHT22;37186;51.394;5.454;2024-01-25T16:47:29;10.90;84.20
26821;DHT22;37186;51.394;5.454;2024-01-25T16:50:29;10.90;84.20
26821;DHT22;37186;51.394;5.454;2024-01-25T16:53:30;10.90;84.20
26821;DHT22;37186;51.394;5.454;2024-01-25T16:56:30;10.90;84.20
26821;DHT22;37186;51.394;5.454;2024-01-25T16:59:31;10.90;85.00
26821;DHT22;37186;51.394;5.454;2024-01-25T17:02:31;10.90;84.30
26821;DHT22;37186;51.394;5.454;2024-01-25T17:05:32;10.90;84.30
26821;DHT22;37186;51.394;5.454;2024-01-25T17:08:32;11.00;84.30
26821;DHT22;37186;51.394;5.454;2024-01-25T17:11:33;11.00;84.40
26821;DHT22;37186;51.394;5.454;2024-01-25T17:14:34;11.00;84.50
26821;DHT22;37186;51.394;5.454;2024-01-25T17:17:35;11.00;84.40
26821;DHT22;37186;51.394;5.454;2024-01-25T17:20:35;11.00;84.40
26821;DHT22;37186;51.394;5.454;2024-01-25T17:23:36;11.00;84.40
26821;DHT22;37186;51.394;5.454;2024-01-25T17:26:36;11.00;84.30
26821;DHT22;37186;51.394;5.454;2024-01-25T17:29:37;11.00;84.50
26821;DHT22;37186;51.394;5.454;2024-01-25T17:32:37;11.00;84.50
26821;DHT22;37186;51.394;5.454;2024-01-25T17:35:38;11.00;84.90
26821;DHT22;37186;51.394;5.454;2024-01-25T17:38:42;11.10;84.70
26821;DHT22;37186;51.394;5.454;2024-01-25T17:41:45;11.10;84.70
26821;DHT22;37186;51.394;5.454;2024-01-25T17:44:46;11.00;84.50
26821;DHT22;37186;51.394;5.454;2024-01-25T17:47:46;11.10;84.70
26821;DHT22;37186;51.394;5.454;2024-01-25T17:50:47;11.10;84.60
26821;DHT22;37186;51.394;5.454;2024-01-25T17:53:47;11.10;84.60
26821;DHT22;37186;51.394;5.454;2024-01-25T17:56:48;11.10;84.60
26821;DHT22;37186;51.394;5.454;2024-01-25T17:59:48;11.10;84.70
26821;DHT22;37186;51.394;5.454;2024-01-25T18:02:49;11.10;84.70
26821;DHT22;37186;51.394;5.454;2024-01-25T18:05:49;11.10;85.00
26821;DHT22;37186;51.394;5.454;2024-01-25T18:08:50;11.20;84.90
26821;DHT22;37186;51.394;5.454;2024-01-25T18:11:51;11.20;84.90
26821;DHT22;37186;51.394;5.454;2024-01-25T18:14:52;11.20;84.90
26821;DHT22;37186;51.394;5.454;2024-01-25T18:17:54;11.20;84.90
26821;DHT22;37186;51.394;5.454;2024-01-25T18:20:55;11.20;84.90
26821;DHT22;37186;51.394;5.454;2024-01-25T18:23:56;11.20;84.90
26821;DHT22;37186;51.394;5.454;2024-01-25T18:26:56;11.20;84.90
26821;DHT22;37186;51.394;5.454;2024-01-25T18:29:57;11.30;84.90
26821;DHT22;37186;51.394;5.454;2024-01-25T18:32:58;11.30;84.90
26821;DHT22;37186;51.394;5.454;2024-01-25T18:35:58;11.30;84.90
26821;DHT22;37186;51.394;5.454;2024-01-25T18:38:59;11.30;84.90
26821;DHT22;37186;51.394;5.454;2024-01-25T18:41:59;11.30;84.90
26821;DHT22;37186;51.394;5.454;2024-01-25T18:45:02;11.30;85.70
26821;DHT22;37186;51.394;5.454;2024-01-25T18:48:03;11.30;84.90
26821;DHT22;37186;51.394;5.454;2024-01-25T18:51:04;11.30;84.90
26821;DHT22;37186;51.394;5.454;2024-01-25T18:54:07;11.30;84.90
26821;DHT22;37186;51.394;5.454;2024-01-25T18:57:12;11.30;84.90
26821;DHT22;37186;51.394;5.454;2024-01-25T19:00:13;11.30;84.90
26821;DHT22;37186;51.394;5.454;2024-01-25T19:03:14;11.30;85.20
26821;DHT22;37186;51.394;5.454;2024-01-25T19:06:15;11.40;85.00
26821;DHT22;37186;51.394;5.454;2024-01-25T19:09:16;11.30;84.90
26821;DHT22;37186;51.394;5.454;2024-01-25T19:12:16;11.40;85.10